Time;durP1;ratioP1;P1;durP2;ratioP2;P2;SDS_P1;SDS_P2;PMS_P1;PMS_P2;Temp;Humidity;BMP_temperature;BMP_pressure;BME280_temperature;BME280_humidity;BME280_pressure;Samples;Min_cycle;Max_cycle;Signal;HPM_P1;HPM_P2
2024/02/18 00:00:06;;;;;;;0.73;0.65;;;;;;;11.99;84.92;100968.34;4966612;28;20050;-51
2024/02/18 00:02:35;;;;;;;1.05;0.68;;;;;;;12.00;84.41;100970.13;4963077;28;20091;-50
2024/02/18 00:05:02;;;;;;;1.15;1.05;;;;;;;12.00;84.53;100975.31;4963400;28;20649;-53
2024/02/18 00:07:29;;;;;;;0.77;0.75;;;;;;;11.99;84.89;100965.75;4967351;28;20460;-52
2024/02/18 00:09:57;;;;;;;0.85;0.73;;;;;;;11.97;85.09;100972.69;4967692;28;20116;-50
2024/02/18 00:12:24;;;;;;;0.93;0.88;;;;;;;11.96;84.96;100970.97;4973343;28;20470;-53
2024/02/18 00:14:53;;;;;;;0.95;0.88;;;;;;;11.94;85.20;100962.28;4966534;28;20480;-48
2024/02/18 00:17:19;;;;;;;0.80;0.70;;;;;;;11.90;85.36;100966.59;4958313;28;20047;-50
2024/02/18 00:19:46;;;;;;;0.45;0.30;;;;;;;11.91;85.83;100962.25;4966897;28;20051;-48
2024/02/18 00:22:13;;;;;;;0.73;0.73;;;;;;;11.91;85.64;100954.47;4956031;28;20779;-50
2024/02/18 00:24:39;;;;;;;0.57;0.57;;;;;;;11.89;86.06;100958.78;4964875;28;20054;-56
2024/02/18 00:27:09;;;;;;;0.40;0.30;;;;;;;11.91;84.86;100954.47;4967314;28;20042;-50
2024/02/18 00:29:36;;;;;;;1.80;1.05;;;;;;;11.90;84.95;100952.72;4967379;28;20101;-52
2024/02/18 00:32:03;;;;;;;1.25;1.15;;;;;;;11.89;85.51;100949.25;4966040;28;20069;-47
2024/02/18 00:34:30;;;;;;;0.65;0.63;;;;;;;11.92;85.22;100953.63;4966435;28;20053;-48
2024/02/18 00:36:57;;;;;;;0.85;0.80;;;;;;;11.93;85.84;100951.00;4967102;28;20487;-51
2024/02/18 00:39:24;;;;;;;2.08;0.63;;;;;;;11.93;85.32;100950.16;4966596;28;20050;-46
2024/02/18 00:41:51;;;;;;;3.22;2.92;;;;;;;11.94;84.56;100949.28;4966367;28;20082;-51
2024/02/18 00:44:19;;;;;;;2.70;1.25;;;;;;;11.94;85.26;100960.56;4966243;28;20086;-52
2024/02/18 00:46:48;;;;;;;1.30;0.70;;;;;;;11.91;85.65;100951.88;4965305;28;20050;-49
2024/02/18 00:49:29;;;;;;;0.60;0.57;;;;;;;11.90;84.83;100944.94;4965907;28;20740;-52
2024/02/18 00:51:56;;;;;;;1.25;1.15;;;;;;;11.90;84.47;100943.22;4965548;28;20162;-50
2024/02/18 00:54:23;;;;;;;0.98;0.43;;;;;;;11.91;84.47;100941.47;4967362;28;20057;-50
2024/02/18 00:56:50;;;;;;;1.17;1.15;;;;;;;11.90;85.56;100942.34;4972894;28;20062;-48
2024/02/18 00:59:17;;;;;;;0.93;0.88;;;;;;;11.91;84.73;100938.88;4965777;28;20104;-50
2024/02/18 01:01:43;;;;;;;0.80;0.50;;;;;;;11.92;85.54;100944.09;4960984;28;20047;-46
2024/02/18 01:04:10;;;;;;;2.55;1.08;;;;;;;11.92;85.03;100935.47;4967250;28;20072;-47
2024/02/18 01:06:37;;;;;;;1.30;1.02;;;;;;;11.95;84.58;100940.63;4966156;28;20529;-44
2024/02/18 01:09:04;;;;;;;0.80;0.65;;;;;;;11.97;85.01;100936.34;4967317;28;20420;-50
2024/02/18 01:11:31;;;;;;;0.93;0.70;;;;;;;11.96;84.74;100937.22;4966183;28;20063;-49
2024/02/18 01:13:58;;;;;;;1.25;1.17;;;;;;;11.97;85.22;100931.16;4960645;28;20046;-47
2024/02/18 01:16:29;;;;;;;1.20;1.08;;;;;;;11.98;84.58;100927.69;4965372;28;20378;-51
2024/02/18 01:18:56;;;;;;;1.45;1.15;;;;;;;11.95;84.94;100920.75;4966016;28;20073;-49
2024/02/18 01:21:23;;;;;;;1.40;1.10;;;;;;;11.93;84.92;100913.81;4966459;28;20066;-49
2024/02/18 01:23:50;;;;;;;1.00;0.85;;;;;;;11.95;85.84;100892.19;4966915;28;20411;-50
2024/02/18 01:26:16;;;;;;;1.95;1.13;;;;;;;11.96;85.20;100898.25;4965027;28;20042;-50
2024/02/18 01:28:43;;;;;;;1.73;1.50;;;;;;;11.95;84.41;100891.31;4972433;28;20050;-49
2024/02/18 01:31:10;;;;;;;1.50;1.40;;;;;;;11.96;84.44;100891.31;4965548;28;20048;-46
2024/02/18 01:33:37;;;;;;;1.27;1.10;;;;;;;11.96;85.54;100887.88;4965971;28;20512;-50
2024/02/18 01:36:04;;;;;;;2.72;0.88;;;;;;;11.95;85.55;100892.19;4968955;28;20062;-52
2024/02/18 01:38:32;;;;;;;2.97;0.98;;;;;;;11.96;85.24;100886.13;4965914;28;20050;-49
2024/02/18 01:40:59;;;;;;;1.35;0.98;;;;;;;11.96;85.57;100882.69;4965643;28;20420;-44
2024/02/18 01:43:26;;;;;;;1.50;1.23;;;;;;;11.98;85.58;100875.75;4966278;28;20047;-47
2024/02/18 01:45:53;;;;;;;3.20;1.25;;;;;;;11.98;84.98;100874.88;4964388;28;20495;-46
2024/02/18 01:48:21;;;;;;;3.88;1.42;;;;;;;11.98;85.30;100880.94;4965955;28;20043;-50
2024/02/18 01:50:48;;;;;;;1.00;0.80;;;;;;;11.97;85.78;100879.22;4966505;28;20050;-48
2024/02/18 01:53:18;;;;;;;2.35;1.67;;;;;;;11.98;85.40;100869.69;4969603;28;20539;-52
2024/02/18 01:55:46;;;;;;;1.50;0.80;;;;;;;11.96;85.63;100862.75;4969138;28;20547;-54
2024/02/18 01:58:13;;;;;;;1.85;1.52;;;;;;;11.96;84.89;100860.16;4969737;28;20101;-50
2024/02/18 02:00:40;;;;;;;0.98;0.65;;;;;;;11.95;84.89;100855.84;4963844;28;20039;-45
2024/02/18 02:03:08;;;;;;;2.60;1.60;;;;;;;11.94;84.83;100858.44;4969356;28;20590;-45
2024/02/18 02:05:38;;;;;;;2.90;1.13;;;;;;;11.93;85.62;100856.72;4970700;28;20117;-51
2024/02/18 02:08:06;;;;;;;1.42;0.90;;;;;;;11.94;84.74;100850.66;4964443;28;20047;-47
2024/02/18 02:10:33;;;;;;;1.17;0.93;;;;;;;11.92;85.48;100849.78;4965114;28;20051;-48
2024/02/18 02:13:00;;;;;;;2.45;0.80;;;;;;;11.92;85.54;100839.41;4973615;28;20058;-45
2024/02/18 02:15:27;;;;;;;2.40;1.70;;;;;;;11.93;85.63;100830.75;4962787;28;20761;-48
2024/02/18 02:17:53;;;;;;;2.05;1.00;;;;;;;11.93;84.91;100835.94;4969188;28;20512;-48
2024/02/18 02:20:20;;;;;;;2.00;1.85;;;;;;;11.91;84.50;100833.34;4969498;28;20047;-52
2024/02/18 02:22:47;;;;;;;1.80;1.55;;;;;;;11.91;85.61;100833.34;4968966;28;20051;-47
2024/02/18 02:25:14;;;;;;;1.90;1.52;;;;;;;11.94;84.93;100842.84;4969826;28;20062;-50
2024/02/18 02:27:43;;;;;;;2.10;1.42;;;;;;;11.93;84.99;100825.56;4969293;28;20050;-55
2024/02/18 02:30:10;;;;;;;2.08;1.60;;;;;;;11.93;84.73;100820.38;4967956;28;20054;-52
2024/02/18 02:32:37;;;;;;;1.60;1.05;;;;;;;11.91;84.85;100817.75;4964678;28;20055;-49
2024/02/18 02:35:05;;;;;;;2.35;1.65;;;;;;;11.93;84.51;100822.97;4968789;28;20054;-51
2024/02/18 02:37:33;;;;;;;3.22;2.75;;;;;;;11.92;84.82;100813.44;4969108;28;20049;-48
2024/02/18 02:40:00;;;;;;;2.35;1.38;;;;;;;11.94;85.48;100811.72;4968652;28;20423;-54
2024/02/18 02:42:27;;;;;;;1.90;1.30;;;;;;;11.93;85.57;100813.41;4969070;28;20572;-50
2024/02/18 02:44:54;;;;;;;2.45;1.77;;;;;;;11.93;84.83;100808.22;4963784;28;20062;-48
2024/02/18 02:47:20;;;;;;;2.35;1.10;;;;;;;11.90;85.79;100804.78;4967461;28;20047;-48
2024/02/18 02:49:47;;;;;;;2.05;1.15;;;;;;;11.91;84.50;100799.59;4968140;28;20051;-47
2024/02/18 02:52:14;;;;;;;2.28;1.65;;;;;;;11.89;85.70;100797.84;4968385;28;20448;-49
2024/02/18 02:54:41;;;;;;;1.73;1.02;;;;;;;11.88;84.74;100790.91;4968992;28;20055;-53
2024/02/18 02:57:08;;;;;;;1.92;1.08;;;;;;;11.90;85.32;100790.06;4967574;28;20061;-50
2024/02/18 02:59:34;;;;;;;2.97;2.22;;;;;;;11.90;85.78;100804.78;4975956;28;20508;-50
2024/02/18 03:02:01;;;;;;;1.88;1.27;;;;;;;11.90;84.85;100795.25;4966537;28;20047;-50
2024/02/18 03:04:28;;;;;;;2.58;1.85;;;;;;;11.92;85.11;100792.69;4963298;28;20050;-49
2024/02/18 03:06:55;;;;;;;2.90;1.83;;;;;;;11.94;84.35;100790.94;4968037;28;20058;-45
2024/02/18 03:09:22;;;;;;;2.40;1.23;;;;;;;11.93;84.41;100784.88;4968584;28;20085;-48
2024/02/18 03:11:49;;;;;;;2.65;1.55;;;;;;;11.94;84.68;100783.16;4968704;28;20179;-52
2024/02/18 03:14:15;;;;;;;2.28;1.50;;;;;;;11.93;84.79;100776.22;4963770;28;20054;-49
2024/02/18 03:16:43;;;;;;;2.97;1.58;;;;;;;11.94;84.25;100773.66;4968192;28;20419;-48
2024/02/18 03:19:11;;;;;;;3.22;1.38;;;;;;;11.94;84.83;100780.56;4967529;28;20054;-49
2024/02/18 03:21:39;;;;;;;3.30;2.30;;;;;;;11.95;84.37;100785.75;4966297;28;20046;-50
2024/02/18 03:24:06;;;;;;;2.22;1.40;;;;;;;11.97;84.10;100783.16;4968084;28;20043;-49
2024/02/18 03:26:34;;;;;;;1.75;1.17;;;;;;;11.95;85.52;100774.50;4960395;28;20062;-52
2024/02/18 03:29:03;;;;;;;1.92;1.38;;;;;;;11.95;84.33;100774.50;4960804;28;20042;-52
2024/02/18 03:31:33;;;;;;;2.95;2.13;;;;;;;11.95;84.06;100771.91;4960245;28;20098;-52
2024/02/18 03:33:59;;;;;;;2.47;1.65;;;;;;;11.94;84.33;100775.38;4968790;28;20130;-51
2024/02/18 03:36:26;;;;;;;2.22;0.63;;;;;;;11.95;84.35;100777.09;4964123;28;20150;-51
2024/02/18 03:38:53;;;;;;;2.08;1.17;;;;;;;11.92;84.70;100777.94;4972504;28;20453;-50
2024/02/18 03:41:20;;;;;;;2.40;1.63;;;;;;;11.93;84.22;100773.63;4961984;28;20122;-47
2024/02/18 03:43:47;;;;;;;2.58;2.00;;;;;;;11.93;84.25;100773.63;4964228;28;20050;-51
2024/02/18 03:46:14;;;;;;;1.95;1.17;;;;;;;11.92;85.11;100766.72;4968316;28;20398;-46
2024/02/18 03:48:41;;;;;;;2.00;1.58;;;;;;;11.91;84.39;100770.16;4967960;28;20496;-50
2024/02/18 03:51:08;;;;;;;3.60;1.80;;;;;;;11.90;85.03;100771.03;4968354;28;20046;-50
2024/02/18 03:53:34;;;;;;;2.28;1.15;;;;;;;11.91;85.05;100764.97;4966998;28;20061;-50
2024/02/18 03:56:01;;;;;;;1.98;1.60;;;;;;;11.88;84.76;100764.94;4963299;28;20061;-50
2024/02/18 03:58:28;;;;;;;2.10;1.35;;;;;;;11.88;85.54;100764.94;4967567;28;20420;-46
2024/02/18 04:00:56;;;;;;;2.17;1.27;;;;;;;11.87;85.11;100758.03;4963590;28;20057;-51
2024/02/18 04:03:23;;;;;;;2.03;1.42;;;;;;;11.86;84.80;100756.31;4963234;28;20043;-49
2024/02/18 04:05:49;;;;;;;0.98;0.57;;;;;;;11.85;85.66;100744.19;4966141;28;20058;-47
2024/02/18 04:08:16;;;;;;;1.23;0.80;;;;;;;11.82;84.73;100738.13;4966973;28;20065;-48
2024/02/18 04:10:43;;;;;;;1.95;1.75;;;;;;;11.83;85.69;100732.06;4967254;28;20054;-50
2024/02/18 04:13:10;;;;;;;1.55;1.17;;;;;;;11.81;85.56;100736.41;4966860;28;20054;-47
2024/02/18 04:15:37;;;;;;;1.67;1.08;;;;;;;11.83;84.44;100734.66;4966412;28;20051;-51
2024/02/18 04:18:03;;;;;;;2.13;1.67;;;;;;;11.84;85.58;100735.53;4970118;28;20055;-49
2024/02/18 04:20:30;;;;;;;2.40;1.25;;;;;;;11.85;84.96;100741.59;4984541;28;20407;-52
2024/02/18 04:22:57;;;;;;;3.45;1.52;;;;;;;11.83;84.83;100747.63;4971508;28;20050;-51
2024/02/18 04:25:24;;;;;;;1.67;0.93;;;;;;;11.85;85.43;100739.00;4963391;28;20157;-53
2024/02/18 04:27:51;;;;;;;4.03;0.95;;;;;;;11.85;85.22;100744.19;4968350;28;20047;-48
2024/02/18 04:30:18;;;;;;;1.30;0.90;;;;;;;11.87;85.80;100747.66;4974600;28;20492;-52
2024/02/18 04:32:45;;;;;;;1.35;1.05;;;;;;;11.86;85.06;100740.72;4977953;28;20059;-50
2024/02/18 04:35:11;;;;;;;1.23;1.00;;;;;;;11.84;85.45;100732.94;4966341;28;20059;-47
2024/02/18 04:37:38;;;;;;;1.30;0.73;;;;;;;11.86;84.95;100735.53;4967655;28;20046;-53
2024/02/18 04:40:07;;;;;;;2.53;1.35;;;;;;;11.85;84.71;100733.81;4966242;28;20059;-50
2024/02/18 04:42:33;;;;;;;2.75;1.48;;;;;;;11.85;85.02;100739.84;4967344;28;20151;-51
2024/02/18 04:45:00;;;;;;;1.30;1.20;;;;;;;11.81;85.79;100733.78;4967149;28;20061;-49
2024/02/18 04:47:27;;;;;;;1.30;1.13;;;;;;;11.84;84.71;100727.75;4962933;28;20058;-51
2024/02/18 04:49:54;;;;;;;0.77;0.57;;;;;;;11.82;84.58;100727.75;4965589;28;20055;-54
2024/02/18 04:52:22;;;;;;;2.40;1.23;;;;;;;11.81;85.35;100723.41;4966393;28;20051;-52
2024/02/18 04:54:49;;;;;;;1.27;1.17;;;;;;;11.80;85.51;100721.69;4967490;28;20050;-50
2024/02/18 04:57:16;;;;;;;1.60;1.50;;;;;;;11.79;85.28;100709.56;4962656;28;20134;-50
2024/02/18 04:59:43;;;;;;;1.90;0.70;;;;;;;11.78;84.72;100713.03;4962068;28;20780;-51
2024/02/18 05:02:11;;;;;;;2.05;1.38;;;;;;;11.78;84.87;100704.34;4961038;28;20057;-54
2024/02/18 05:04:38;;;;;;;2.00;1.15;;;;;;;11.77;85.11;100702.63;4967094;28;20535;-48
2024/02/18 05:07:05;;;;;;;1.60;1.25;;;;;;;11.77;85.25;100706.09;4973353;28;20055;-49
2024/02/18 05:09:32;;;;;;;1.13;1.02;;;;;;;11.78;85.75;100697.44;4966213;28;20162;-51
2024/02/18 05:11:58;;;;;;;1.48;1.38;;;;;;;11.77;84.66;100706.09;4962683;28;20511;-51
2024/02/18 05:14:25;;;;;;;0.95;0.77;;;;;;;11.75;85.15;100709.56;4963539;28;20464;-51
2024/02/18 05:16:52;;;;;;;2.38;0.77;;;;;;;11.76;84.92;100701.75;4965660;28;20085;-50
2024/02/18 05:19:18;;;;;;;1.10;1.00;;;;;;;11.74;85.71;100695.72;4967274;28;20440;-49
2024/02/18 05:21:45;;;;;;;1.48;0.80;;;;;;;11.73;85.85;100703.50;4966231;28;20480;-50
2024/02/18 05:24:14;;;;;;;1.05;0.95;;;;;;;11.72;85.79;100697.41;4963440;28;20079;-52
2024/02/18 05:26:41;;;;;;;1.30;0.95;;;;;;;11.74;85.23;100695.72;4965989;28;20054;-48
2024/02/18 05:29:07;;;;;;;0.50;0.40;;;;;;;11.74;85.56;100690.53;4969271;28;20050;-50
2024/02/18 05:31:35;;;;;;;0.90;0.60;;;;;;;11.75;84.82;100691.41;4965138;28;20050;-50
2024/02/18 05:34:02;;;;;;;0.63;0.25;;;;;;;11.74;85.54;100680.13;4969703;28;20055;-47
2024/02/18 05:36:30;;;;;;;0.63;0.45;;;;;;;11.74;85.56;100680.13;4971886;28;20468;-50
2024/02/18 05:38:57;;;;;;;0.68;0.68;;;;;;;11.72;85.94;100679.25;4970822;28;20106;-47
2024/02/18 05:41:25;;;;;;;1.63;1.02;;;;;;;11.74;86.01;100680.13;4967340;28;20055;-51
2024/02/18 05:43:51;;;;;;;0.65;0.65;;;;;;;11.73;85.19;100683.59;4961834;28;20046;-49
2024/02/18 05:46:18;;;;;;;0.43;0.43;;;;;;;11.75;85.55;100681.88;4968725;28;20047;-49
2024/02/18 05:48:45;;;;;;;0.50;0.43;;;;;;;11.77;84.71;100672.38;4969695;28;20076;-50
2024/02/18 05:51:11;;;;;;;0.82;0.82;;;;;;;11.77;85.59;100668.91;4969658;28;20051;-48
2024/02/18 05:53:38;;;;;;;0.70;0.43;;;;;;;11.77;84.63;100669.78;4967429;28;20381;-49
2024/02/18 05:56:06;;;;;;;0.57;0.47;;;;;;;11.78;84.69;100674.09;4968257;28;20551;-49
2024/02/18 05:58:33;;;;;;;0.85;0.85;;;;;;;11.79;84.71;100673.22;4969812;28;20054;-46
2024/02/18 06:01:00;;;;;;;0.60;0.32;;;;;;;11.78;85.12;100670.63;4965989;28;20051;-52
2024/02/18 06:03:27;;;;;;;0.95;0.90;;;;;;;11.78;85.55;100668.91;4967820;28;20053;-50
2024/02/18 06:05:56;;;;;;;0.82;0.82;;;;;;;11.77;85.02;100662.00;4969665;28;20128;-52
2024/02/18 06:08:26;;;;;;;0.85;0.85;;;;;;;11.78;84.81;100655.91;4968311;28;20046;-50
2024/02/18 06:10:53;;;;;;;0.60;0.52;;;;;;;11.79;84.85;100662.84;4968407;28;20524;-46
2024/02/18 06:13:20;;;;;;;0.82;0.82;;;;;;;11.77;84.99;100664.56;4969991;28;20135;-45
2024/02/18 06:15:46;;;;;;;1.02;0.98;;;;;;;11.76;85.83;100673.22;4969636;28;20487;-44
2024/02/18 06:18:13;;;;;;;1.25;0.82;;;;;;;11.74;85.01;100669.75;4968926;28;20461;-54
2024/02/18 06:20:40;;;;;;;1.58;0.57;;;;;;;11.74;85.64;100671.47;4968546;28;20078;-50
2024/02/18 06:23:07;;;;;;;1.35;0.90;;;;;;;11.75;85.08;100665.44;4969654;28;20047;-44
2024/02/18 06:25:37;;;;;;;0.80;0.47;;;;;;;11.77;84.74;100663.69;4967167;28;20051;-46
2024/02/18 06:28:07;;;;;;;0.80;0.80;;;;;;;11.76;85.72;100655.03;4972793;28;20055;-53
2024/02/18 06:30:36;;;;;;;1.10;0.60;;;;;;;11.74;85.53;100659.38;4964287;28;20104;-50
2024/02/18 06:33:03;;;;;;;0.88;0.82;;;;;;;11.75;85.21;100655.91;4968456;28;20062;-50
2024/02/18 06:35:30;;;;;;;1.13;0.93;;;;;;;11.74;84.82;100649.00;4969551;28;20042;-53
2024/02/18 06:37:58;;;;;;;1.27;1.17;;;;;;;11.76;85.45;100651.59;4967942;28;20440;-49
2024/02/18 06:40:25;;;;;;;1.05;0.57;;;;;;;11.75;85.11;100655.06;4966241;28;20054;-48
2024/02/18 06:42:51;;;;;;;1.10;0.68;;;;;;;11.75;84.73;100661.09;4968238;28;20149;-45
2024/02/18 06:45:18;;;;;;;1.27;0.80;;;;;;;11.77;84.53;100658.50;4966781;28;20055;-47
2024/02/18 06:47:47;;;;;;;1.35;1.17;;;;;;;11.77;85.74;100662.00;4968259;28;20055;-51
2024/02/18 06:50:15;;;;;;;0.98;0.85;;;;;;;11.78;85.04;100665.44;4966702;28;20507;-49
2024/02/18 06:52:42;;;;;;;1.30;0.80;;;;;;;11.77;85.42;100654.19;4969077;28;20050;-54
2024/02/18 06:55:09;;;;;;;0.80;0.77;;;;;;;11.76;85.57;100660.22;4967935;28;20054;-51
2024/02/18 06:57:37;;;;;;;1.17;0.50;;;;;;;11.75;85.47;100655.91;4965170;28;20053;-50
2024/02/18 07:00:04;;;;;;;2.10;1.35;;;;;;;11.78;84.79;100653.31;4967076;28;20054;-48
2024/02/18 07:02:33;;;;;;;1.42;0.90;;;;;;;11.80;84.61;100654.22;4966878;28;20051;-54
2024/02/18 07:04:59;;;;;;;2.63;0.65;;;;;;;11.80;84.82;100654.22;4961647;28;20046;-48
2024/02/18 07:07:28;;;;;;;2.15;1.08;;;;;;;11.79;85.88;100657.66;4968382;28;20130;-57
2024/02/18 07:09:54;;;;;;;1.13;0.85;;;;;;;11.78;85.82;100653.31;4963557;28;20080;-50
2024/02/18 07:12:21;;;;;;;1.48;1.35;;;;;;;11.79;85.11;100655.06;4968895;28;20130;-51
2024/02/18 07:14:48;;;;;;;1.42;0.90;;;;;;;11.79;85.23;100652.47;4967575;28;20156;-47
2024/02/18 07:17:19;;;;;;;1.73;1.45;;;;;;;11.81;85.10;100655.94;4966326;28;20051;-51
2024/02/18 07:19:48;;;;;;;2.00;1.00;;;;;;;11.80;85.27;100656.81;4967460;28;20053;-46
2024/02/18 07:22:17;;;;;;;2.13;1.13;;;;;;;11.79;86.07;100657.66;4965673;28;20385;-51
2024/02/18 07:24:44;;;;;;;2.40;0.95;;;;;;;11.76;85.78;100652.44;4967972;28;20078;-49
2024/02/18 07:27:11;;;;;;;3.40;1.85;;;;;;;11.77;84.70;100662.00;4966923;28;20137;-52
2024/02/18 07:29:38;;;;;;;2.65;1.83;;;;;;;11.78;86.01;100648.13;4967806;28;20054;-48
2024/02/18 07:32:06;;;;;;;3.08;1.90;;;;;;;11.79;85.73;100649.00;4967225;28;20548;-52
2024/02/18 07:34:33;;;;;;;1.95;0.95;;;;;;;11.79;85.57;100651.59;4968266;28;20055;-51
2024/02/18 07:37:00;;;;;;;2.30;1.63;;;;;;;11.78;84.76;100655.91;4966931;28;20054;-49
2024/02/18 07:39:27;;;;;;;2.75;1.25;;;;;;;11.78;85.21;100655.91;4968197;28;20063;-47
2024/02/18 07:41:54;;;;;;;2.35;1.35;;;;;;;11.77;85.17;100651.59;4965804;28;20050;-47
2024/02/18 07:44:20;;;;;;;2.88;1.15;;;;;;;11.76;84.77;100657.63;4967969;28;20145;-49
2024/02/18 07:46:48;;;;;;;3.22;1.33;;;;;;;11.77;85.92;100654.19;4965089;28;20050;-51
2024/02/18 07:49:15;;;;;;;2.47;1.33;;;;;;;11.76;85.67;100652.44;4967549;28;20071;-49
2024/02/18 07:51:43;;;;;;;2.75;0.90;;;;;;;11.77;85.15;100651.59;4967980;28;20047;-49
2024/02/18 07:54:10;;;;;;;2.05;1.38;;;;;;;11.76;85.32;100656.78;4966068;28;20451;-46
2024/02/18 07:56:45;;;;;;;2.65;1.42;;;;;;;11.76;86.09;100657.63;4967186;28;20432;-50
2024/02/18 07:59:13;;;;;;;2.83;1.77;;;;;;;11.78;85.74;100661.13;4959314;28;20050;-48
2024/02/18 08:01:39;;;;;;;2.20;1.02;;;;;;;11.77;84.76;100662.00;4965962;28;20086;-47
2024/02/18 08:04:06;;;;;;;2.17;1.20;;;;;;;11.77;85.76;100669.78;4963501;28;20599;-49
2024/02/18 08:06:33;;;;;;;2.65;1.75;;;;;;;11.79;85.08;100672.38;4968334;28;20412;-51
2024/02/18 08:09:00;;;;;;;2.63;1.73;;;;;;;11.77;86.03;100674.97;4967131;28;20094;-52
2024/02/18 08:11:29;;;;;;;2.25;1.38;;;;;;;11.74;85.58;100680.13;4966900;28;20047;-50
2024/02/18 08:13:55;;;;;;;2.58;1.00;;;;;;;11.77;86.06;100681.88;4966441;28;20157;-50
2024/02/18 08:16:26;;;;;;;2.45;1.55;;;;;;;11.76;85.26;100688.78;4966920;28;20046;-49
2024/02/18 08:18:55;;;;;;;2.28;1.38;;;;;;;11.75;85.15;100692.25;4966379;28;20059;-49
2024/02/18 08:21:23;;;;;;;2.97;1.27;;;;;;;11.78;86.31;100697.44;4965156;28;20046;-51
2024/02/18 08:23:50;;;;;;;2.70;1.60;;;;;;;11.78;85.58;100702.63;4967804;28;20270;-52
2024/02/18 08:26:20;;;;;;;2.78;1.80;;;;;;;11.80;85.46;100698.34;4967180;28;20047;-47
2024/02/18 08:28:47;;;;;;;2.78;1.25;;;;;;;11.80;85.19;100698.34;4965372;28;20051;-49
2024/02/18 08:31:15;;;;;;;2.55;1.13;;;;;;;11.79;85.34;100691.38;4965261;28;20420;-51
2024/02/18 08:33:42;;;;;;;2.03;0.93;;;;;;;11.79;85.64;100693.97;4966898;28;20055;-49
2024/02/18 08:36:09;;;;;;;4.90;1.17;;;;;;;11.74;86.42;100695.72;4964093;28;20051;-46
2024/02/18 08:38:36;;;;;;;2.35;1.65;;;;;;;11.74;85.97;100711.28;4966140;28;20055;-45
2024/02/18 08:41:04;;;;;;;0.95;0.80;;;;;;;11.72;86.50;100712.16;4965856;28;20046;-46
2024/02/18 08:43:33;;;;;;;1.58;1.00;;;;;;;11.69;85.68;100728.56;4959246;28;20519;-48
2024/02/18 08:46:00;;;;;;;2.28;1.48;;;;;;;11.72;85.69;100728.56;4966197;28;20054;-48
2024/02/18 08:48:26;;;;;;;2.15;1.13;;;;;;;11.67;87.06;100735.47;4966966;28;20051;-50
2024/02/18 08:50:53;;;;;;;3.90;1.33;;;;;;;11.71;85.83;100732.03;4967030;28;20049;-48
2024/02/18 08:53:21;;;;;;;1.85;1.20;;;;;;;11.75;85.67;100738.97;4966294;28;20050;-55
2024/02/18 08:55:48;;;;;;;3.13;0.90;;;;;;;11.75;85.88;100744.16;4965792;28;20059;-48
2024/02/18 08:58:15;;;;;;;1.17;0.95;;;;;;;11.76;86.45;100740.69;4965046;28;20213;-50
2024/02/18 09:00:45;;;;;;;3.25;1.52;;;;;;;11.77;86.89;100752.81;4965943;28;20051;-54
2024/02/18 09:03:12;;;;;;;2.22;0.77;;;;;;;11.78;86.61;100754.53;4970288;28;20050;-45
2024/02/18 09:05:39;;;;;;;1.63;0.73;;;;;;;11.80;85.54;100763.22;4970757;28;20047;-50
2024/02/18 09:08:07;;;;;;;1.33;0.68;;;;;;;11.82;86.40;100758.00;4968413;28;20050;-50
2024/02/18 09:10:36;;;;;;;2.17;1.15;;;;;;;11.77;86.10;100763.19;4968846;28;20062;-45
2024/02/18 09:13:03;;;;;;;1.98;1.55;;;;;;;11.86;85.89;100771.88;4968077;28;20185;-46
2024/02/18 09:15:30;;;;;;;2.63;1.67;;;;;;;11.89;85.87;100777.94;4970291;28;20059;-50
2024/02/18 09:17:57;;;;;;;2.10;1.73;;;;;;;11.93;85.93;100758.06;4969326;28;20061;-50
2024/02/18 09:20:25;;;;;;;3.22;1.27;;;;;;;11.95;85.94;100761.50;4968838;28;20039;-49
2024/02/18 09:22:52;;;;;;;2.35;1.73;;;;;;;12.02;85.81;100768.47;4968689;28;20073;-47
2024/02/18 09:25:18;;;;;;;3.33;1.92;;;;;;;12.07;86.53;100766.78;4969292;28;20130;-45
2024/02/18 09:27:45;;;;;;;3.42;1.98;;;;;;;12.10;86.12;100767.66;4970121;28;20058;-52
2024/02/18 09:30:12;;;;;;;2.25;1.15;;;;;;;12.17;86.74;100777.19;4968887;28;20429;-47
2024/02/18 09:32:39;;;;;;;2.60;1.85;;;;;;;12.23;85.99;100782.41;4967171;28;20489;-50
2024/02/18 09:35:07;;;;;;;3.55;2.25;;;;;;;12.33;86.68;100783.31;4968488;28;20048;-46
2024/02/18 09:37:36;;;;;;;3.53;1.73;;;;;;;12.34;86.69;100790.22;4970510;28;20173;-52
2024/02/18 09:40:03;;;;;;;3.17;1.77;;;;;;;12.38;85.71;100793.66;4968342;28;20078;-49
2024/02/18 09:42:35;;;;;;;7.60;2.70;;;;;;;12.34;86.01;100791.06;4969782;28;20101;-52
2024/02/18 09:45:02;;;;;;;3.35;1.50;;;;;;;12.37;85.63;100789.34;4970125;28;20051;-51
2024/02/18 09:47:30;;;;;;;2.60;1.88;;;;;;;12.36;86.01;100793.66;4968282;28;20142;-50
2024/02/18 09:49:58;;;;;;;2.97;1.45;;;;;;;12.30;85.57;100799.72;4967467;28;20047;-51
2024/02/18 09:52:25;;;;;;;3.05;1.85;;;;;;;12.30;86.45;100804.91;4968157;28;20058;-52
2024/02/18 09:54:52;;;;;;;3.10;1.92;;;;;;;12.28;85.96;100806.66;4970508;28;20708;-51
2024/02/18 09:57:19;;;;;;;3.25;1.77;;;;;;;12.28;86.30;100811.84;4968409;28;20456;-54
2024/02/18 09:59:46;;;;;;;3.92;1.83;;;;;;;12.29;85.70;100820.53;4970321;28;20054;-51
2024/02/18 10:02:16;;;;;;;2.40;1.00;;;;;;;12.30;85.46;100810.09;4967003;28;20054;-52
2024/02/18 10:04:46;;;;;;;3.50;2.35;;;;;;;12.32;85.83;100818.78;4968243;28;20751;-45
2024/02/18 10:07:15;;;;;;;3.42;1.77;;;;;;;12.34;85.10;100826.59;4968906;28;20058;-45
2024/02/18 10:09:43;;;;;;;3.17;1.33;;;;;;;12.32;85.50;100828.28;4966396;28;20061;-49
2024/02/18 10:12:11;;;;;;;4.20;1.80;;;;;;;12.38;85.92;100827.44;4978768;28;20051;-50
2024/02/18 10:14:38;;;;;;;3.35;1.35;;;;;;;12.38;86.06;100827.44;4968179;28;20055;-48
2024/02/18 10:17:05;;;;;;;4.80;2.45;;;;;;;12.37;85.58;100828.31;4969040;28;20472;-53
2024/02/18 10:19:33;;;;;;;3.53;1.63;;;;;;;12.40;84.60;100825.72;4967150;28;20416;-49
2024/02/18 10:22:01;;;;;;;3.83;1.70;;;;;;;12.41;85.28;100833.53;4969748;28;20484;-51
2024/02/18 10:24:29;;;;;;;2.65;1.70;;;;;;;12.41;84.65;100830.94;4966708;28;20062;-51
2024/02/18 10:26:56;;;;;;;2.17;1.23;;;;;;;12.32;86.11;100834.38;4973932;28;20109;-52
2024/02/18 10:29:25;;;;;;;5.53;1.20;;;;;;;12.34;85.43;100827.44;4968417;28;20065;-48
2024/02/18 10:31:52;;;;;;;2.60;1.70;;;;;;;12.30;84.54;100823.09;4968538;28;20140;-50
2024/02/18 10:34:19;;;;;;;1.65;1.52;;;;;;;12.25;85.21;100832.63;4968860;28;20546;-48
2024/02/18 10:36:50;;;;;;;3.95;1.73;;;;;;;12.34;85.06;100832.63;4966308;28;20113;-53
2024/02/18 10:39:17;;;;;;;3.45;1.40;;;;;;;12.39;84.53;100830.06;4967519;28;20057;-47
2024/02/18 10:42:06;;;;;;;4.47;2.35;;;;;;;12.42;85.24;100835.25;4968738;28;20043;-49
2024/02/18 10:44:39;;;;;;;4.97;1.50;;;;;;;12.55;85.39;100843.94;4968235;28;20054;-49
2024/02/18 10:47:08;;;;;;;1.83;1.27;;;;;;;12.63;84.44;100843.09;4967878;28;20086;-50
2024/02/18 10:49:40;;;;;;;4.55;1.38;;;;;;;12.75;85.07;100853.50;4968614;28;20379;-47
2024/02/18 10:55:09;;;;;;;4.47;1.13;;;;;;;12.82;83.47;100860.44;5047443;27;20398;-52
2024/02/18 10:57:45;;;;;;;8.18;1.20;;;;;;;12.94;83.23;100863.94;5019161;28;20073;-52
2024/02/18 11:00:15;;;;;;;10.65;1.63;;;;;;;13.11;83.35;100871.72;5014794;28;20080;-45
2024/02/18 11:05:18;;;;;;;5.00;1.77;;;;;;;14.05;81.70;100877.63;5022208;27;20905;-49
2024/02/18 11:07:47;;;;;;;3.85;1.55;;;;;;;14.21;80.24;100888.00;4998483;28;20069;-50
2024/02/18 11:10:14;;;;;;;7.15;1.50;;;;;;;14.48;79.82;100891.34;5008149;28;20050;-49
2024/02/18 11:12:44;;;;;;;8.50;1.48;;;;;;;14.63;78.90;100906.91;5003225;28;20053;-50
2024/02/18 11:15:13;;;;;;;6.65;1.92;;;;;;;14.58;77.01;100898.25;5000454;28;20078;-52
2024/02/18 11:17:42;;;;;;;9.43;1.38;;;;;;;14.60;77.56;100896.50;5003790;28;20042;-51
2024/02/18 11:20:11;;;;;;;10.70;1.45;;;;;;;14.46;77.12;100893.09;5002969;28;20050;-47
2024/02/18 11:22:39;;;;;;;9.07;1.63;;;;;;;14.34;75.83;100897.50;5002552;28;20494;-50
2024/02/18 11:25:07;;;;;;;5.15;1.83;;;;;;;14.46;75.73;100903.53;4998659;28;20046;-50
2024/02/18 11:27:35;;;;;;;8.45;1.40;;;;;;;14.50;76.52;100902.63;5003564;28;20057;-48
2024/02/18 11:30:04;;;;;;;5.90;1.42;;;;;;;14.46;76.05;100903.53;5003822;28;20046;-54